Time;durP1;ratioP1;P1;durP2;ratioP2;P2;SDS_P1;SDS_P2;PMS_P1;PMS_P2;Temp;Humidity;BMP_temperature;BMP_pressure;BME280_temperature;BME280_humidity;BME280_pressure;Samples;Min_cycle;Max_cycle;Signal;HPM_P1;HPM_P2
2022/09/24 00:01:49;;;;;;;5.67;4.10;;;12.80;99.90;;;;;;5051798;28;20203;-71
2022/09/24 00:04:17;;;;;;;5.80;4.47;;;12.70;99.90;;;;;;5053348;28;20229;-71
2022/09/24 00:06:46;;;;;;;5.17;4.40;;;12.60;99.90;;;;;;5052541;28;20226;-71
2022/09/24 00:09:15;;;;;;;4.63;4.23;;;12.60;99.90;;;;;;5053159;28;20203;-71
2022/09/24 00:11:43;;;;;;;5.17;4.67;;;12.60;99.90;;;;;;5051972;28;20662;-71
2022/09/24 00:14:09;;;;;;;5.50;4.63;;;12.60;99.90;;;;;;5052802;28;20231;-71
2022/09/24 00:16:41;;;;;;;6.23;4.80;;;12.60;99.90;;;;;;5052571;28;20199;-71
2022/09/24 00:19:08;;;;;;;6.07;4.67;;;12.70;99.90;;;;;;5051742;28;20207;-70
2022/09/24 00:21:36;;;;;;;5.90;4.40;;;12.60;99.90;;;;;;5051165;28;20579;-71
2022/09/24 00:24:06;;;;;;;7.03;4.93;;;12.60;99.90;;;;;;5053245;28;20206;-71
2022/09/24 00:26:50;;;;;;;5.37;4.50;;;12.60;99.90;;;;;;5051912;28;20218;-71
2022/09/24 00:29:18;;;;;;;8.07;4.97;;;12.60;99.90;;;;;;5051027;28;20580;-70
2022/09/24 00:31:47;;;;;;;5.17;4.20;;;12.60;99.90;;;;;;5052173;28;20195;-71
2022/09/24 00:34:14;;;;;;;8.63;4.97;;;12.70;99.90;;;;;;5053042;28;20233;-71
2022/09/24 00:36:41;;;;;;;6.40;4.30;;;12.60;99.90;;;;;;5051901;28;20202;-71
2022/09/24 00:39:08;;;;;;;5.73;4.73;;;12.60;99.90;;;;;;5050556;28;20203;-71
2022/09/24 00:41:37;;;;;;;5.03;4.30;;;12.60;99.90;;;;;;5052091;28;20677;-71
2022/09/24 00:44:37;;;;;;;6.10;4.50;;;12.50;99.90;;;;;;5051736;28;20199;-71
2022/09/24 00:47:06;;;;;;;6.87;4.77;;;12.50;99.90;;;;;;5049518;28;20203;-70
2022/09/24 00:49:33;;;;;;;7.83;4.33;;;12.40;99.90;;;;;;5050882;28;20207;-71
2022/09/24 00:51:59;;;;;;;7.67;4.73;;;12.40;99.90;;;;;;5042546;28;20206;-71
2022/09/24 00:54:29;;;;;;;6.00;3.90;;;12.40;99.90;;;;;;5051193;28;20215;-71
2022/09/24 00:56:58;;;;;;;6.50;4.70;;;12.30;99.90;;;;;;5052406;28;20195;-71
2022/09/24 00:59:27;;;;;;;6.57;4.63;;;12.20;99.90;;;;;;5050643;28;20237;-71
2022/09/24 01:01:57;;;;;;;7.33;4.97;;;12.30;99.90;;;;;;5050894;28;20207;-71
2022/09/24 01:04:27;;;;;;;8.93;5.70;;;12.30;99.90;;;;;;5052240;28;20195;-71
2022/09/24 01:06:55;;;;;;;8.77;5.47;;;12.30;99.90;;;;;;5052650;28;20203;-70
2022/09/24 01:09:24;;;;;;;5.67;4.90;;;12.40;99.90;;;;;;5048780;28;20206;-71
2022/09/24 01:12:01;;;;;;;9.77;5.37;;;12.30;99.90;;;;;;5043989;28;20218;-70
2022/09/24 01:14:44;;;;;;;6.67;5.07;;;12.30;99.90;;;;;;5051209;28;20587;-71
2022/09/24 01:17:21;;;;;;;5.57;4.97;;;12.30;99.90;;;;;;5046311;28;20324;-71
2022/09/24 01:20:18;;;;;;;6.90;4.70;;;12.20;99.90;;;;;;5050383;28;20203;-71
2022/09/24 01:23:00;;;;;;;5.90;4.50;;;12.20;99.90;;;;;;5039292;28;20210;-71
2022/09/24 01:25:35;;;;;;;5.77;4.97;;;12.20;99.90;;;;;;5051492;28;20657;-70
2022/09/24 01:28:13;;;;;;;5.97;4.87;;;12.30;99.90;;;;;;5051603;28;20207;-71
2022/09/24 01:30:42;;;;;;;6.40;4.60;;;12.30;99.90;;;;;;5050577;28;20695;-71
2022/09/24 01:33:16;;;;;;;7.03;5.00;;;12.40;99.90;;;;;;5050453;28;20202;-70
2022/09/24 01:35:45;;;;;;;7.23;5.00;;;12.40;99.90;;;;;;5051700;28;20214;-71
2022/09/24 01:38:15;;;;;;;8.20;5.00;;;12.50;99.90;;;;;;5050182;28;20210;-71
2022/09/24 01:40:43;;;;;;;7.00;4.93;;;12.50;99.90;;;;;;5054021;28;20651;-70
2022/09/24 01:43:12;;;;;;;6.27;4.87;;;12.50;99.90;;;;;;5057111;28;20551;-71
2022/09/24 01:45:41;;;;;;;7.43;4.73;;;12.40;99.90;;;;;;5051246;28;20226;-71
2022/09/24 01:48:09;;;;;;;5.03;4.43;;;12.50;99.90;;;;;;5050138;28;20206;-71
2022/09/24 01:50:43;;;;;;;6.00;4.80;;;12.50;99.90;;;;;;5050566;28;20214;-71
2022/09/24 01:53:15;;;;;;;6.40;5.07;;;12.50;99.90;;;;;;5051261;28;20209;-71
2022/09/24 01:55:47;;;;;;;6.40;4.80;;;12.50;99.90;;;;;;5050683;28;20223;-70
2022/09/24 01:58:18;;;;;;;6.57;5.23;;;12.60;99.90;;;;;;5046140;28;20219;-71
2022/09/24 02:00:49;;;;;;;7.27;5.13;;;12.50;99.90;;;;;;5050339;28;20199;-71
2022/09/24 02:03:20;;;;;;;6.60;5.37;;;12.50;99.90;;;;;;5044189;28;20209;-71
2022/09/24 02:05:51;;;;;;;5.77;4.70;;;12.50;99.90;;;;;;5050414;28;20665;-71
2022/09/24 02:08:22;;;;;;;8.37;4.90;;;12.40;99.90;;;;;;5047116;28;20211;-71
2022/09/24 02:10:53;;;;;;;5.87;4.60;;;12.40;99.90;;;;;;5047951;28;20217;-70
2022/09/24 02:13:23;;;;;;;5.57;4.93;;;12.40;99.90;;;;;;5050821;28;20206;-70
2022/09/24 02:15:56;;;;;;;7.37;4.70;;;12.40;99.90;;;;;;5050339;28;20211;-71
2022/09/24 02:18:28;;;;;;;6.13;4.60;;;12.50;99.90;;;;;;5049543;28;20550;-71
2022/09/24 02:20:58;;;;;;;9.67;5.03;;;12.40;99.90;;;;;;5050305;28;20199;-71
2022/09/24 02:23:28;;;;;;;6.03;4.50;;;12.50;99.90;;;;;;5049451;28;20572;-71
2022/09/24 02:25:58;;;;;;;5.10;4.60;;;12.40;99.90;;;;;;5044126;28;20673;-71
2022/09/24 02:28:26;;;;;;;4.73;4.27;;;12.40;99.90;;;;;;5046891;28;20214;-71
2022/09/24 02:31:00;;;;;;;5.60;4.90;;;12.40;99.90;;;;;;5049250;28;20210;-71
2022/09/24 02:36:13;;;;;;;7.20;5.40;;;12.40;99.90;;;;;;5049174;28;20202;-71
2022/09/24 02:38:42;;;;;;;6.20;4.87;;;12.50;99.90;;;;;;5050787;28;20198;-71
2022/09/24 02:41:10;;;;;;;6.30;5.10;;;12.40;99.90;;;;;;5049673;28;20268;-71
2022/09/24 02:43:36;;;;;;;6.67;5.57;;;12.40;99.90;;;;;;5054637;28;20203;-71
2022/09/24 02:46:05;;;;;;;8.20;5.50;;;12.50;99.90;;;;;;5054668;28;20209;-71
2022/09/24 02:48:31;;;;;;;8.57;5.87;;;12.40;99.90;;;;;;5053900;28;20207;-71
2022/09/24 02:50:59;;;;;;;6.07;5.40;;;12.30;99.90;;;;;;5054209;28;20219;-71
2022/09/24 02:53:26;;;;;;;7.47;5.40;;;12.30;99.90;;;;;;5054414;28;20202;-71
2022/09/24 02:55:52;;;;;;;10.97;5.60;;;12.20;99.90;;;;;;5054964;28;20227;-71
2022/09/24 02:58:20;;;;;;;8.17;5.97;;;12.10;99.90;;;;;;5054330;28;20207;-71
2022/09/24 03:00:46;;;;;;;7.23;5.80;;;12.10;99.90;;;;;;5055628;28;20198;-71
2022/09/24 03:03:14;;;;;;;7.03;5.77;;;12.20;99.90;;;;;;5052501;28;20209;-71
2022/09/24 03:05:41;;;;;;;9.23;6.43;;;12.10;99.90;;;;;;5054598;28;20195;-71
2022/09/24 03:08:08;;;;;;;8.60;6.50;;;12.20;99.90;;;;;;5054210;28;20203;-71
2022/09/24 03:10:35;;;;;;;8.37;5.93;;;12.20;99.90;;;;;;5053210;28;20297;-71
2022/09/24 03:13:01;;;;;;;8.13;6.00;;;12.10;99.90;;;;;;5053513;28;20202;-71
2022/09/24 03:15:29;;;;;;;6.80;5.70;;;12.20;99.90;;;;;;5053893;28;20222;-71
2022/09/24 03:17:55;;;;;;;7.60;6.07;;;12.20;99.90;;;;;;5053692;28;20665;-71
2022/09/24 03:20:24;;;;;;;9.63;6.10;;;12.20;99.90;;;;;;5053228;28;20534;-71
2022/09/24 03:22:51;;;;;;;8.23;6.10;;;12.10;99.90;;;;;;5053241;28;20248;-71
2022/09/24 03:25:18;;;;;;;9.60;6.10;;;12.20;99.90;;;;;;5054247;28;20191;-72
2022/09/24 03:27:45;;;;;;;7.93;6.30;;;12.20;99.90;;;;;;5052396;28;20203;-71
2022/09/24 03:32:58;;;;;;;9.47;7.13;;;12.00;99.90;;;;;;5053103;28;20579;-71
2022/09/24 03:35:26;;;;;;;8.50;6.60;;;12.10;99.90;;;;;;5053505;28;20317;-71
2022/09/24 03:37:53;;;;;;;9.90;7.00;;;12.20;99.90;;;;;;5053063;28;20227;-71
2022/09/24 03:40:20;;;;;;;7.67;6.83;;;12.00;99.90;;;;;;5051690;28;20199;-71
2022/09/24 03:42:46;;;;;;;7.17;6.37;;;12.00;99.90;;;;;;5053849;28;20203;-71
2022/09/24 03:45:13;;;;;;;7.73;6.70;;;11.80;99.90;;;;;;5061157;28;20194;-71
2022/09/24 03:47:41;;;;;;;10.83;9.13;;;11.90;99.90;;;;;;5065097;28;20206;-71
2022/09/24 03:50:10;;;;;;;14.03;11.40;;;12.00;99.90;;;;;;5047682;28;20232;-71
2022/09/24 03:52:39;;;;;;;13.47;8.87;;;12.10;99.90;;;;;;5053649;28;20657;-71
2022/09/24 03:55:07;;;;;;;12.77;8.20;;;12.10;99.90;;;;;;5053502;28;20243;-71
2022/09/24 03:57:34;;;;;;;10.77;8.07;;;12.10;99.90;;;;;;5053397;28;20195;-72
2022/09/24 04:00:01;;;;;;;10.00;7.33;;;12.20;99.90;;;;;;5052465;28;20203;-71
2022/09/24 04:02:27;;;;;;;11.30;7.80;;;12.20;99.90;;;;;;5052419;28;20202;-72
2022/09/24 04:04:54;;;;;;;8.30;6.60;;;12.10;99.90;;;;;;5052946;28;20206;-71
2022/09/24 04:07:21;;;;;;;9.37;7.53;;;12.00;99.90;;;;;;5053125;28;20199;-71
2022/09/24 04:09:49;;;;;;;9.93;8.30;;;12.00;99.90;;;;;;5052830;28;20203;-71
2022/09/24 04:12:16;;;;;;;10.57;8.70;;;11.80;99.90;;;;;;5051514;28;20203;-71
2022/09/24 04:14:43;;;;;;;12.83;9.80;;;11.70;99.90;;;;;;5052160;28;20211;-71
2022/09/24 04:17:10;;;;;;;14.23;10.37;;;11.80;99.90;;;;;;5052951;28;20208;-71
2022/09/24 04:19:38;;;;;;;11.33;9.03;;;11.80;99.90;;;;;;5052996;28;20210;-71
2022/09/24 04:22:05;;;;;;;15.00;10.97;;;11.90;99.90;;;;;;5051345;28;20203;-72
2022/09/24 04:24:32;;;;;;;13.40;9.97;;;11.80;99.90;;;;;;5060069;28;20631;-71
2022/09/24 04:27:00;;;;;;;14.00;10.60;;;11.80;99.90;;;;;;5050238;28;20210;-71
2022/09/24 04:29:26;;;;;;;13.80;9.57;;;11.80;99.90;;;;;;5045511;28;20206;-71
2022/09/24 04:31:53;;;;;;;11.33;9.20;;;11.70;99.90;;;;;;5051822;28;20205;-71
2022/09/24 04:34:20;;;;;;;13.17;9.97;;;11.70;99.90;;;;;;5052401;28;20566;-71
2022/09/24 04:36:47;;;;;;;12.23;9.73;;;11.80;99.90;;;;;;5051170;28;20235;-71
2022/09/24 04:39:14;;;;;;;9.57;7.90;;;11.80;99.90;;;;;;5052293;28;20202;-71
2022/09/24 04:41:41;;;;;;;11.83;9.17;;;11.60;99.90;;;;;;5050233;28;20211;-71
2022/09/24 04:44:10;;;;;;;13.10;9.83;;;11.60;99.90;;;;;;5046817;28;20546;-71
2022/09/24 04:46:39;;;;;;;12.43;8.97;;;11.70;99.90;;;;;;5052732;28;20203;-71
2022/09/24 04:49:06;;;;;;;11.77;9.20;;;11.70;99.90;;;;;;5051442;28;20203;-71
2022/09/24 04:51:34;;;;;;;11.10;8.47;;;11.60;99.90;;;;;;5051646;28;20211;-71
2022/09/24 04:54:02;;;;;;;10.60;8.30;;;11.60;99.90;;;;;;5053531;28;20202;-70
2022/09/24 04:56:29;;;;;;;9.40;7.20;;;11.50;99.90;;;;;;5048719;28;20223;-71
2022/09/24 04:58:56;;;;;;;7.80;6.67;;;11.40;99.90;;;;;;5052207;28;20206;-70
2022/09/24 05:01:24;;;;;;;9.17;7.00;;;11.30;99.90;;;;;;5049270;28;20207;-71
2022/09/24 05:03:53;;;;;;;8.43;7.30;;;11.30;99.90;;;;;;5049341;28;20207;-70
2022/09/24 05:06:20;;;;;;;10.17;7.90;;;11.30;99.90;;;;;;5048807;28;20221;-71
2022/09/24 05:08:47;;;;;;;10.07;7.73;;;11.30;99.90;;;;;;5048873;28;20664;-71
2022/09/24 05:11:14;;;;;;;11.37;9.10;;;11.30;99.90;;;;;;5049802;28;20661;-71
2022/09/24 05:13:40;;;;;;;13.83;9.73;;;11.50;99.90;;;;;;5050870;28;20207;-70
2022/09/24 05:16:08;;;;;;;13.40;9.53;;;11.60;99.90;;;;;;5045347;28;20223;-70
2022/09/24 05:18:36;;;;;;;14.60;9.50;;;11.60;99.90;;;;;;5050179;28;20290;-70
2022/09/24 05:21:03;;;;;;;11.83;8.97;;;11.60;99.90;;;;;;5048057;28;20635;-70
2022/09/24 05:23:29;;;;;;;12.47;9.40;;;11.70;99.90;;;;;;5051289;28;20207;-70
2022/09/24 05:28:41;;;;;;;13.57;8.53;;;11.60;99.90;;;;;;5047545;28;20566;-71
2022/09/24 05:31:09;;;;;;;11.73;7.63;;;11.50;99.90;;;;;;5048297;28;20261;-71
2022/09/24 05:33:37;;;;;;;11.60;8.07;;;11.50;99.90;;;;;;5048596;28;20286;-71
2022/09/24 05:36:04;;;;;;;10.77;8.00;;;11.60;99.90;;;;;;5049270;28;20211;-70
2022/09/24 05:38:31;;;;;;;12.73;8.93;;;11.60;99.90;;;;;;5047446;28;20202;-71
2022/09/24 05:40:58;;;;;;;10.23;7.30;;;11.60;99.90;;;;;;5049853;28;20686;-71
2022/09/24 05:43:26;;;;;;;7.43;6.40;;;11.70;99.90;;;;;;5045574;28;20557;-70
2022/09/24 05:45:53;;;;;;;7.70;6.33;;;11.60;99.90;;;;;;5050678;28;20238;-70
2022/09/24 05:48:21;;;;;;;8.93;6.77;;;11.60;99.90;;;;;;5050548;28;20207;-71
2022/09/24 05:50:54;;;;;;;8.63;6.83;;;11.70;99.90;;;;;;5046850;28;20238;-71
2022/09/24 05:53:21;;;;;;;10.10;6.40;;;11.70;99.90;;;;;;5059002;28;20206;-70
2022/09/24 05:55:48;;;;;;;7.70;6.30;;;11.80;99.90;;;;;;5049300;28;20227;-71
2022/09/24 05:58:14;;;;;;;8.10;6.10;;;11.80;99.90;;;;;;5052285;28;20207;-71
2022/09/24 06:00:41;;;;;;;7.43;6.20;;;11.80;99.90;;;;;;5049879;28;20203;-71
2022/09/24 06:03:12;;;;;;;8.90;6.37;;;11.70;99.90;;;;;;5051788;28;20203;-71
2022/09/24 06:05:44;;;;;;;12.37;6.57;;;11.80;99.90;;;;;;5048099;28;20199;-70
2022/09/24 06:08:14;;;;;;;9.17;6.00;;;11.90;99.90;;;;;;5046203;28;20580;-70
2022/09/24 06:10:41;;;;;;;7.60;6.53;;;11.80;99.90;;;;;;5052533;28;20249;-71
2022/09/24 06:13:08;;;;;;;8.60;7.37;;;11.90;99.90;;;;;;5046023;28;20685;-71
2022/09/24 06:15:35;;;;;;;11.03;8.33;;;11.90;99.90;;;;;;5052242;28;20219;-71
2022/09/24 06:18:01;;;;;;;8.93;7.60;;;11.90;99.90;;;;;;5051148;28;20211;-70
2022/09/24 06:20:28;;;;;;;8.93;7.10;;;12.00;99.90;;;;;;5051425;28;20210;-70
2022/09/24 06:22:56;;;;;;;8.87;7.17;;;12.10;99.90;;;;;;5051504;28;20203;-70
2022/09/24 06:25:24;;;;;;;15.93;10.83;;;12.20;99.90;;;;;;5052139;28;20206;-70
2022/09/24 06:27:59;;;;;;;19.60;12.00;;;12.20;99.90;;;;;;5051531;28;20260;-70
2022/09/24 06:30:27;;;;;;;15.33;10.67;;;12.20;99.90;;;;;;5093025;22;20233;-81
2022/09/24 06:32:53;;;;;;;8.93;7.53;;;12.30;99.90;;;;;;5080095;28;20194;-81
2022/09/24 06:35:20;;;;;;;9.70;8.10;;;12.40;99.90;;;;;;5091188;28;20630;-80
2022/09/24 06:37:48;;;;;;;10.67;7.93;;;12.40;99.90;;;;;;5094455;28;20189;-82
2022/09/24 06:40:15;;;;;;;9.80;7.27;;;12.40;99.90;;;;;;5094328;28;20255;-82
2022/09/24 06:42:43;;;;;;;10.97;7.60;;;12.30;99.90;;;;;;5094310;28;20261;-82
2022/09/24 06:45:12;;;;;;;10.53;7.00;;;12.40;99.90;;;;;;5093951;28;20210;-80
2022/09/24 06:47:38;;;;;;;7.90;6.97;;;12.50;99.90;;;;;;5093582;28;20281;-80
2022/09/24 06:50:07;;;;;;;10.20;8.40;;;12.50;99.90;;;;;;5091098;28;20194;-80
2022/09/24 06:52:34;;;;;;;11.87;8.83;;;12.60;99.90;;;;;;5089792;28;20284;-81
2022/09/24 06:55:01;;;;;;;11.40;8.40;;;12.60;99.90;;;;;;5092488;28;20205;-83
2022/09/24 06:57:27;;;;;;;11.73;8.33;;;12.70;99.90;;;;;;5095190;28;20208;-81
2022/09/24 06:59:56;;;;;;;10.17;8.73;;;12.80;99.90;;;;;;5091832;28;20562;-81
2022/09/24 07:02:22;;;;;;;12.00;8.37;;;12.90;99.90;;;;;;5091437;28;20225;-81
2022/09/24 07:04:49;;;;;;;13.27;8.23;;;13.00;99.90;;;;;;5093382;28;20198;-81
2022/09/24 07:07:32;;;;;;;10.97;8.20;;;13.10;99.90;;;;;;5092379;28;20216;-81
2022/09/24 07:10:00;;;;;;;9.37;7.67;;;13.20;99.90;;;;;;5093496;28;20206;-82
2022/09/24 07:12:28;;;;;;;12.07;8.70;;;13.30;99.90;;;;;;5093129;28;20208;-80
2022/09/24 07:14:56;;;;;;;11.37;8.17;;;13.40;99.90;;;;;;5093880;28;20669;-81
2022/09/24 07:17:23;;;;;;;12.10;8.00;;;13.30;99.90;;;;;;5093461;28;20221;-81
2022/09/24 07:19:50;;;;;;;10.73;8.63;;;13.60;99.90;;;;;;5094466;28;20198;-81
2022/09/24 07:22:16;;;;;;;11.07;8.87;;;13.60;99.90;;;;;;5093462;28;20204;-82
2022/09/24 07:24:43;;;;;;;11.70;8.30;;;13.70;99.90;;;;;;5092392;28;20301;-83
2022/09/24 07:27:10;;;;;;;11.13;9.03;;;13.80;99.90;;;;;;5088958;28;20309;-82
2022/09/24 07:29:38;;;;;;;11.07;8.87;;;13.90;99.90;;;;;;5094832;28;20300;-82
2022/09/24 07:32:06;;;;;;;13.47;10.67;;;13.90;99.90;;;;;;5097385;28;20201;-82
2022/09/24 07:34:33;;;;;;;12.83;9.70;;;13.90;99.90;;;;;;5099030;28;20205;-82
2022/09/24 07:37:00;;;;;;;11.33;8.50;;;14.00;99.90;;;;;;5098495;28;20271;-82
2022/09/24 07:39:27;;;;;;;10.77;8.47;;;14.00;99.90;;;;;;5098820;28;20243;-82
2022/09/24 07:41:54;;;;;;;11.00;8.60;;;14.20;99.90;;;;;;5097744;28;20207;-82
2022/09/24 07:44:22;;;;;;;11.90;8.50;;;14.10;99.90;;;;;;5098649;28;20209;-82
2022/09/24 07:46:49;;;;;;;12.10;8.83;;;14.10;99.90;;;;;;5098935;28;20258;-82
2022/09/24 07:49:17;;;;;;;15.77;10.00;;;14.20;99.90;;;;;;5099121;28;20212;-82
2022/09/24 07:51:44;;;;;;;15.53;11.17;;;14.20;99.90;;;;;;5098160;28;20224;-82
2022/09/24 07:54:11;;;;;;;13.57;10.60;;;14.30;99.90;;;;;;5098291;28;20676;-83
2022/09/24 07:56:38;;;;;;;13.37;10.17;;;14.40;99.90;;;;;;5097692;28;20225;-82
2022/09/24 07:59:06;;;;;;;13.57;9.93;;;14.50;1.00;;;;;;5098911;28;20204;-82
2022/09/24 08:01:33;;;;;;;16.10;11.50;;;14.60;27.60;;;;;;5098828;28;20221;-82
2022/09/24 08:04:01;;;;;;;16.23;11.63;;;14.60;1.00;;;;;;5098659;28;20268;-82
2022/09/24 08:06:32;;;;;;;16.80;11.30;;;14.70;1.00;;;;;;5098345;28;20218;-82
2022/09/24 08:08:59;;;;;;;15.53;11.17;;;14.80;1.00;;;;;;5098127;28;20204;-82
2022/09/24 08:11:26;;;;;;;19.30;11.40;;;14.90;1.00;;;;;;5097567;28;20204;-82
2022/09/24 08:13:53;;;;;;;17.08;11.20;;;15.00;1.00;;;;;;5097557;28;20210;-81
2022/09/24 08:16:21;;;;;;;14.55;11.10;;;15.00;1.00;;;;;;5097005;28;20305;-81
2022/09/24 08:18:48;;;;;;;15.47;11.83;;;15.10;1.00;;;;;;5097020;28;20538;-81
2022/09/24 08:21:15;;;;;;;14.33;10.33;;;15.20;1.00;;;;;;5095721;28;20205;-81
2022/09/24 08:23:44;;;;;;;15.37;10.90;;;15.10;1.00;;;;;;5096635;28;20205;-81
2022/09/24 08:26:11;;;;;;;13.57;10.15;;;15.20;1.00;;;;;;5096812;28;20226;-81
2022/09/24 08:28:40;;;;;;;16.87;11.60;;;15.30;99.90;;;;;;5097534;28;20650;-81
2022/09/24 08:31:10;;;;;;;17.10;11.20;;;15.40;99.90;;;;;;5096524;28;20218;-81
2022/09/24 08:33:38;;;;;;;13.32;9.70;;;15.50;99.90;;;;;;5097588;28;20196;-81
2022/09/24 08:36:07;;;;;;;15.18;10.65;;;15.70;1.00;;;;;;5091186;28;21019;-81
2022/09/24 08:38:34;;;;;;;12.85;9.45;;;15.60;1.00;;;;;;5075763;28;20216;-82
2022/09/24 08:41:15;;;;;;;14.80;9.60;;;15.60;1.00;;;;;;5075180;28;20204;-82
2022/09/24 08:43:52;;;;;;;13.07;9.40;;;15.60;1.00;;;;;;5076080;28;20281;-81
2022/09/24 08:49:15;;;;;;;12.45;9.68;;;15.70;1.00;;;;;;5076767;28;20269;-81
2022/09/24 08:51:53;;;;;;;14.48;9.80;;;15.80;1.00;;;;;;5087684;28;20192;-82
2022/09/24 08:54:23;;;;;;;11.20;9.20;;;15.70;1.00;;;;;;5096058;28;20205;-81
2022/09/24 08:56:54;;;;;;;11.23;8.40;;;15.70;85.40;;;;;;5095949;28;20222;-82
2022/09/24 08:59:27;;;;;;;11.33;8.93;;;15.80;1.00;;;;;;5096053;28;20208;-81
2022/09/24 09:02:12;;;;;;;12.07;8.45;;;15.80;91.60;;;;;;5095694;28;20197;-81
2022/09/24 09:04:45;;;;;;;12.52;9.38;;;15.70;34.40;;;;;;5095720;28;20194;-81
2022/09/24 09:07:18;;;;;;;14.18;9.40;;;15.70;1.00;;;;;;5095400;28;20205;-81
2022/09/24 09:09:50;;;;;;;11.50;8.70;;;15.80;85.70;;;;;;5096000;28;20201;-81
2022/09/24 09:12:25;;;;;;;10.80;9.15;;;15.80;1.00;;;;;;5095437;28;20221;-81
2022/09/24 09:14:58;;;;;;;12.65;9.52;;;15.90;1.00;;;;;;5095598;28;20224;-81
2022/09/24 09:17:34;;;;;;;14.00;10.10;;;15.80;1.00;;;;;;5095235;28;20677;-81
2022/09/24 09:20:06;;;;;;;12.88;9.93;;;15.80;1.00;;;;;;5094773;28;20288;-80
2022/09/24 09:22:39;;;;;;;11.90;9.55;;;15.90;1.00;;;;;;5096053;28;20240;-81
2022/09/24 09:25:18;;;;;;;14.20;10.68;;;15.80;99.90;;;;;;5091786;28;20320;-81
2022/09/24 09:27:49;;;;;;;13.30;11.05;;;15.80;1.00;;;;;;5097516;28;20200;-81
2022/09/24 09:30:19;;;;;;;16.25;11.35;;;15.90;1.00;;;;;;5108971;28;20583;-80
2022/09/24 09:33:00;;;;;;;16.02;12.50;;;15.80;1.00;;;;;;5114443;28;20193;-81
2022/09/24 09:35:35;;;;;;;15.48;12.73;;;15.80;99.90;;;;;;5108921;28;20726;-80
2022/09/24 09:38:16;;;;;;;18.30;13.02;;;15.80;1.00;;;;;;5094181;28;20213;-81
2022/09/24 09:40:49;;;;;;;16.77;12.88;;;15.70;1.00;;;;;;5095172;28;20194;-79
2022/09/24 09:43:19;;;;;;;16.17;12.73;;;15.80;1.00;;;;;;5095853;28;20186;-80
2022/09/24 09:45:56;;;;;;;24.33;17.10;;;15.70;1.00;;;;;;5094321;28;20241;-81
2022/09/24 09:48:25;;;;;;;17.92;14.20;;;15.70;99.90;;;;;;5080236;28;20190;-81
2022/09/24 09:50:59;;;;;;;17.00;12.52;;;15.70;1.00;;;;;;5090953;28;20551;-79
2022/09/24 09:53:27;;;;;;;18.23;13.25;;;15.50;1.00;;;;;;5089180;28;20201;-79
2022/09/24 09:55:56;;;;;;;17.52;13.48;;;15.70;1.00;;;;;;5094668;28;20224;-79
2022/09/24 09:58:25;;;;;;;21.08;12.70;;;15.70;99.90;;;;;;5097345;28;20270;-80
2022/09/24 10:00:53;;;;;;;17.50;13.13;;;15.70;1.00;;;;;;5094200;28;20204;-79
2022/09/24 10:03:26;;;;;;;16.55;12.25;;;15.70;99.90;;;;;;5093880;28;20300;-79
2022/09/24 10:05:56;;;;;;;17.95;12.52;;;15.80;1.00;;;;;;5093378;28;20220;-80
2022/09/24 10:08:23;;;;;;;15.57;11.50;;;15.80;99.90;;;;;;5098299;28;20543;-79
2022/09/24 10:10:57;;;;;;;18.60;11.73;;;15.80;99.90;;;;;;5096519;28;20205;-79
2022/09/24 10:13:27;;;;;;;18.13;12.02;;;15.90;1.00;;;;;;5093950;28;20722;-80
2022/09/24 10:15:56;;;;;;;17.73;11.82;;;15.90;1.00;;;;;;5094824;28;20217;-79
2022/09/24 10:18:31;;;;;;;19.95;13.75;;;15.70;99.90;;;;;;5092261;28;20202;-79
2022/09/24 10:21:02;;;;;;;18.38;13.18;;;15.70;1.00;;;;;;5093286;28;20201;-80
2022/09/24 10:23:34;;;;;;;20.27;13.27;;;15.70;1.00;;;;;;5106830;28;20631;-80
2022/09/24 10:26:02;;;;;;;19.10;12.20;;;15.80;99.90;;;;;;5092048;28;20230;-80
2022/09/24 10:31:21;;;;;;;17.15;12.63;;;15.70;99.90;;;;;;5094487;28;20205;-80
2022/09/24 10:33:51;;;;;;;18.08;12.35;;;15.80;1.00;;;;;;5102930;28;20196;-80
2022/09/24 10:36:21;;;;;;;18.15;12.73;;;15.80;1.00;;;;;;5084942;28;20217;-80
2022/09/24 10:38:48;;;;;;;19.92;13.75;;;15.80;1.00;;;;;;5092700;28;20197;-80
2022/09/24 10:41:17;;;;;;;23.45;14.43;;;15.70;1.00;;;;;;5097805;28;20209;-80
2022/09/24 10:43:52;;;;;;;24.17;14.05;;;15.80;1.00;;;;;;5094556;28;20661;-79
2022/09/24 10:46:35;;;;;;;19.42;13.48;;;16.00;99.90;;;;;;5094731;28;20225;-80
2022/09/24 10:49:10;;;;;;;22.95;14.43;;;15.90;1.00;;;;;;5092072;28;20205;-79
2022/09/24 10:51:46;;;;;;;20.85;13.98;;;15.80;99.90;;;;;;5091550;28;20594;-79
2022/09/24 10:54:33;;;;;;;22.05;14.35;;;15.80;1.00;;;;;;5095898;28;20284;-80
2022/09/24 10:57:07;;;;;;;20.42;13.85;;;15.60;1.00;;;;;;5091267;28;20640;-79
2022/09/24 10:59:48;;;;;;;19.10;13.38;;;15.60;1.00;;;;;;5096837;28;20261;-79
2022/09/24 11:02:40;;;;;;;20.63;13.43;;;15.70;99.90;;;;;;5097230;28;20201;-80
2022/09/24 11:05:12;;;;;;;18.35;12.77;;;15.80;99.90;;;;;;5094981;28;20238;-80
2022/09/24 11:07:54;;;;;;;17.60;12.15;;;15.90;19.40;;;;;;5099296;28;20198;-79
2022/09/24 11:10:50;;;;;;;19.77;12.93;;;16.00;99.90;;;;;;5102207;28;20202;-79
2022/09/24 11:13:25;;;;;;;17.55;12.27;;;16.10;5.40;;;;;;5106155;28;20258;-79
2022/09/24 11:16:31;;;;;;;19.52;13.82;;;16.10;1.00;;;;;;5103842;28;20224;-80
2022/09/24 11:19:02;;;;;;;17.00;11.75;;;16.20;1.00;;;;;;5093848;28;20201;-80
2022/09/24 11:21:40;;;;;;;15.73;10.85;;;16.40;99.90;;;;;;5099772;28;20205;-79
2022/09/24 11:24:20;;;;;;;16.00;10.70;;;16.40;1.00;;;;;;5103495;28;20657;-79
2022/09/24 11:27:00;;;;;;;17.23;10.68;;;16.40;1.00;;;;;;5097344;28;20655;-79
2022/09/24 11:29:51;;;;;;;15.73;9.95;;;16.40;99.90;;;;;;5096253;28;20674;-81
2022/09/24 11:32:28;;;;;;;14.77;10.15;;;16.20;99.90;;;;;;5100495;28;20205;-81
2022/09/24 11:35:14;;;;;;;14.73;9.75;;;16.10;1.00;;;;;;5093876;28;20205;-81
2022/09/24 11:37:53;;;;;;;13.02;8.50;;;16.30;1.00;;;;;;5098362;28;20236;-80
2022/09/24 11:40:41;;;;;;;13.05;9.38;;;16.30;1.00;;;;;;5094755;28;20704;-80
2022/09/24 11:43:26;;;;;;;14.88;9.07;;;16.30;49.30;;;;;;5116107;28;20205;-80
2022/09/24 11:46:06;;;;;;;15.03;9.27;;;16.20;99.90;;;;;;5103669;28;20220;-80
2022/09/24 11:48:59;;;;;;;14.50;9.55;;;16.10;1.00;;;;;;5096520;28;20216;-81
2022/09/24 11:51:33;;;;;;;15.38;10.65;;;16.00;16.00;;;;;;5095775;28;20317;-80
2022/09/24 11:54:06;;;;;;;17.88;10.32;;;16.00;99.90;;;;;;5095152;28;20197;-79
2022/09/24 11:56:37;;;;;;;13.98;9.50;;;16.00;1.00;;;;;;5088569;28;20226;-79
2022/09/24 11:59:15;;;;;;;14.02;9.70;;;16.00;99.90;;;;;;5104397;28;20207;-79
2022/09/24 12:01:48;;;;;;;16.45;11.10;;;16.10;99.90;;;;;;5105244;28;20198;-80
2022/09/24 12:04:21;;;;;;;15.05;10.52;;;16.20;1.00;;;;;;5097274;28;20221;-80
2022/09/24 12:06:53;;;;;;;15.73;10.43;;;16.20;99.90;;;;;;5105495;28;20740;-80
2022/09/24 12:09:28;;;;;;;16.42;9.68;;;16.40;1.00;;;;;;5098014;28;20661;-80
2022/09/24 12:12:02;;;;;;;12.95;8.70;;;16.30;99.90;;;;;;5094222;28;20295;-80
2022/09/24 12:14:44;;;;;;;13.00;8.85;;;16.30;99.90;;;;;;5097207;28;20204;-80
2022/09/24 12:17:24;;;;;;;12.80;8.18;;;16.50;1.00;;;;;;5098231;28;20232;-81
2022/09/24 12:19:56;;;;;;;12.85;8.25;;;16.40;99.90;;;;;;5095818;28;20240;-81
2022/09/24 12:22:26;;;;;;;12.60;8.52;;;16.60;1.00;;;;;;5091552;28;20221;-80
2022/09/24 12:24:57;;;;;;;13.05;8.38;;;16.60;99.90;;;;;;5094796;28;20197;-81
2022/09/24 12:27:32;;;;;;;13.60;8.32;;;16.60;1.00;;;;;;5095801;28;20197;-81
2022/09/24 12:32:54;;;;;;;13.50;8.77;;;16.50;1.00;;;;;;5095957;28;20216;-81
2022/09/24 12:35:32;;;;;;;12.93;9.07;;;16.40;1.00;;;;;;5096956;28;20278;-80
2022/09/24 12:38:06;;;;;;;14.65;9.35;;;16.30;1.00;;;;;;5095472;28;20215;-80
2022/09/24 12:40:58;;;;;;;13.90;8.50;;;16.30;99.90;;;;;;5086536;28;20585;-79
2022/09/24 12:43:30;;;;;;;13.35;9.00;;;16.20;99.90;;;;;;5069815;28;20198;-80
2022/09/24 12:46:00;;;;;;;14.27;8.40;;;16.00;99.90;;;;;;5098562;28;20227;-81
2022/09/24 12:48:28;;;;;;;12.57;7.57;;;15.90;99.90;;;;;;5100797;28;20201;-81
2022/09/24 12:50:59;;;;;;;10.63;7.88;;;15.80;99.90;;;;;;5095725;28;20236;-80
2022/09/24 12:53:33;;;;;;;11.35;7.90;;;15.80;99.90;;;;;;5094665;28;20217;-81
2022/09/24 12:56:01;;;;;;;14.38;8.20;;;15.80;99.90;;;;;;5093415;28;20221;-79
2022/09/24 12:58:30;;;;;;;11.18;8.00;;;15.80;99.90;;;;;;5092894;28;20233;-79
2022/09/24 13:01:12;;;;;;;11.10;7.85;;;15.80;99.90;;;;;;5088449;28;20201;-80
2022/09/24 13:03:40;;;;;;;12.07;8.57;;;15.80;99.90;;;;;;5095466;28;20193;-81
2022/09/24 13:06:22;;;;;;;13.95;9.05;;;15.70;99.90;;;;;;5088217;28;20686;-81
2022/09/24 13:08:50;;;;;;;13.20;8.88;;;15.70;99.90;;;;;;5090982;28;20677;-81
2022/09/24 13:11:28;;;;;;;11.70;8.45;;;15.80;99.90;;;;;;5088102;28;20193;-81
2022/09/24 13:14:01;;;;;;;13.43;9.15;;;15.80;99.90;;;;;;5098321;28;20212;-81
2022/09/24 13:16:28;;;;;;;13.80;9.27;;;15.80;99.90;;;;;;5080815;28;20229;-81